Time;durP1;ratioP1;P1;durP2;ratioP2;P2;SDS_P1;SDS_P2;PMS_P1;PMS_P2;Temp;Humidity;BMP_temperature;BMP_pressure;BME280_temperature;BME280_humidity;BME280_pressure;Samples;Min_cycle;Max_cycle;Signal;HPM_P1;HPM_P2
2023/12/11 00:00:29;;;;;;;6.97;2.90;;;;;;;4.42;64.35;99404.13;5012652;28;20044;-68
2023/12/11 00:02:55;;;;;;;12.93;3.65;;;;;;;4.29;64.70;99408.06;5008007;28;20045;-70
2023/12/11 00:05:21;;;;;;;4.88;2.55;;;;;;;4.42;64.61;99413.63;5011997;28;20036;-68
2023/12/11 00:07:47;;;;;;;8.63;3.25;;;;;;;4.22;65.79;99406.63;5007169;28;20411;-68
2023/12/11 00:10:13;;;;;;;7.05;3.22;;;;;;;4.01;66.14;99411.69;5009116;28;20130;-71
2023/12/11 00:12:39;;;;;;;7.63;4.07;;;;;;;4.46;64.98;99424.72;5009229;28;20057;-69
2023/12/11 00:15:05;;;;;;;10.45;3.92;;;;;;;4.30;66.18;99424.47;5009826;28;20044;-69
2023/12/11 00:17:30;;;;;;;8.13;3.65;;;;;;;4.29;65.92;99413.25;5027067;28;20033;-69
2023/12/11 00:19:56;;;;;;;10.60;4.28;;;;;;;4.23;66.73;99418.66;5007579;28;20037;-69
2023/12/11 00:22:22;;;;;;;10.32;4.90;;;;;;;4.17;66.92;99414.56;5011185;28;20056;-69
2023/12/11 00:24:47;;;;;;;10.10;4.35;;;;;;;4.47;66.21;99416.88;5008913;28;20415;-69
2023/12/11 00:27:13;;;;;;;13.63;4.68;;;;;;;4.42;66.59;99422.22;5009929;28;20044;-69
2023/12/11 00:29:38;;;;;;;12.40;5.18;;;;;;;4.45;66.85;99429.03;5007132;28;20041;-70
2023/12/11 00:32:04;;;;;;;15.43;4.65;;;;;;;4.63;66.25;99423.19;5011860;28;20033;-69
2023/12/11 00:34:31;;;;;;;8.32;4.68;;;;;;;4.54;66.51;99418.38;5026156;28;20558;-68
2023/12/11 00:36:56;;;;;;;9.52;3.30;;;;;;;4.04;68.72;99418.47;5006865;28;20017;-69
2023/12/11 00:39:22;;;;;;;11.05;2.60;;;;;;;4.31;68.02;99431.31;5009819;28;20220;-69
2023/12/11 00:41:48;;;;;;;18.20;2.67;;;;;;;4.69;66.19;99432.44;5009239;28;20048;-66
2023/12/11 00:44:13;;;;;;;13.05;2.95;;;;;;;4.83;65.55;99432.75;5007191;28;20041;-65
2023/12/11 00:46:39;;;;;;;17.00;3.42;;;;;;;4.66;66.50;99434.31;5007884;28;20029;-66
2023/12/11 00:49:04;;;;;;;10.60;2.65;;;;;;;4.64;66.19;99435.19;5008579;28;21653;-69
2023/12/11 00:51:30;;;;;;;8.73;1.40;;;;;;;4.76;66.12;99433.88;5011282;28;20026;-69
2023/12/11 00:53:55;;;;;;;11.55;2.60;;;;;;;4.75;65.58;99424.44;5005548;28;20050;-68
2023/12/11 00:56:21;;;;;;;14.00;1.10;;;;;;;4.62;66.81;99438.75;5010497;28;20075;-69
2023/12/11 00:58:46;;;;;;;5.95;2.22;;;;;;;5.03;65.90;99431.13;4982595;28;20083;-69
2023/12/11 01:01:11;;;;;;;19.55;3.47;;;;;;;5.11;65.63;99429.09;5001784;28;20048;-68
2023/12/11 01:03:37;;;;;;;19.45;2.00;;;;;;;4.99;66.42;99438.22;5007957;28;20049;-68
2023/12/11 01:06:03;;;;;;;8.50;1.50;;;;;;;4.99;66.55;99437.38;5007615;28;20099;-69
2023/12/11 01:08:30;;;;;;;16.05;2.25;;;;;;;4.99;66.85;99438.22;5011549;28;20046;-69
2023/12/11 01:10:55;;;;;;;11.55;1.20;;;;;;;5.05;66.00;99431.94;5007389;28;20747;-70
2023/12/11 01:13:21;;;;;;;17.88;1.70;;;;;;;5.17;65.97;99434.03;5010145;28;20160;-68
2023/12/11 01:15:47;;;;;;;14.60;1.75;;;;;;;5.12;66.12;99441.13;5007042;28;20400;-69
2023/12/11 01:18:12;;;;;;;15.90;2.13;;;;;;;5.36;65.16;99439.28;5008401;28;20064;-69
2023/12/11 01:20:38;;;;;;;18.13;1.48;;;;;;;5.19;65.51;99447.78;5008836;28;20614;-68
2023/12/11 01:23:05;;;;;;;24.45;1.58;;;;;;;5.18;65.80;99445.22;5003859;28;20038;-68
2023/12/11 01:25:30;;;;;;;20.02;1.17;;;;;;;5.15;66.08;99445.38;5012185;28;20459;-69
2023/12/11 01:27:55;;;;;;;21.63;3.00;;;;;;;5.12;65.88;99446.31;5003838;28;20132;-69
2023/12/11 01:30:21;;;;;;;15.32;1.75;;;;;;;5.27;65.76;99454.38;5009708;28;20030;-66
2023/12/11 01:32:46;;;;;;;7.93;1.20;;;;;;;5.20;65.67;99454.63;5006487;28;20052;-69
2023/12/11 01:35:12;;;;;;;21.13;2.72;;;;;;;5.08;65.90;99446.50;5010143;28;20091;-68
2023/12/11 01:37:37;;;;;;;16.08;2.13;;;;;;;5.22;65.95;99451.97;5006107;28;20037;-69
2023/12/11 01:40:05;;;;;;;20.52;1.80;;;;;;;4.98;66.63;99451.22;4994579;28;20049;-69
2023/12/11 01:42:32;;;;;;;12.70;1.88;;;;;;;4.99;66.35;99458.09;4999146;28;20351;-69
2023/12/11 01:44:58;;;;;;;15.13;2.40;;;;;;;4.96;66.51;99460.78;5013638;28;20187;-70
2023/12/11 01:47:24;;;;;;;20.20;2.50;;;;;;;5.15;66.14;99446.19;5007332;28;20473;-69
2023/12/11 01:49:49;;;;;;;14.63;1.75;;;;;;;5.11;65.21;99452.41;5006386;28;20048;-70
2023/12/11 01:52:17;;;;;;;19.70;1.55;;;;;;;5.23;65.16;99464.00;5009074;28;20057;-70
2023/12/11 01:54:43;;;;;;;23.00;2.20;;;;;;;4.67;66.65;99464.47;5005313;28;20051;-69
2023/12/11 01:57:09;;;;;;;15.43;2.28;;;;;;;5.18;65.37;99466.78;4991440;28;20029;-70
2023/12/11 01:59:35;;;;;;;20.35;2.58;;;;;;;4.91;66.02;99457.53;5009354;28;20543;-65
2023/12/11 02:02:03;;;;;;;19.60;1.70;;;;;;;4.88;65.60;99468.84;5008391;28;20065;-64
2023/12/11 02:04:29;;;;;;;28.17;2.53;;;;;;;5.04;65.39;99463.91;5007386;28;20095;-65
2023/12/11 02:06:56;;;;;;;28.58;3.10;;;;;;;4.66;66.03;99463.63;5006894;28;20045;-66
2023/12/11 02:09:21;;;;;;;19.23;2.90;;;;;;;4.65;66.98;99461.91;5005120;28;20169;-64
2023/12/11 02:11:47;;;;;;;20.35;3.00;;;;;;;4.55;67.00;99465.78;5006582;28;20032;-64
2023/12/11 02:14:12;;;;;;;20.38;2.70;;;;;;;4.76;66.30;99464.94;5005747;28;20052;-66
2023/12/11 02:16:38;;;;;;;20.17;2.35;;;;;;;5.09;64.98;99464.56;5007386;28;20061;-65
2023/12/11 02:19:03;;;;;;;18.17;2.20;;;;;;;4.87;65.81;99466.28;5006356;28;20176;-66
2023/12/11 02:21:28;;;;;;;17.48;2.03;;;;;;;4.68;66.46;99454.06;5008349;28;20037;-68
2023/12/11 02:24:06;;;;;;;21.10;1.75;;;;;;;4.82;65.85;99446.59;5006208;28;20448;-67
2023/12/11 02:26:31;;;;;;;24.20;3.35;;;;;;;4.68;66.27;99450.63;5007043;28;20667;-67
2023/12/11 02:28:57;;;;;;;22.02;2.25;;;;;;;4.92;65.73;99444.53;4989339;28;20140;-67
2023/12/11 02:31:22;;;;;;;26.60;2.72;;;;;;;5.29;64.37;99452.56;5008413;28;20039;-68
2023/12/11 02:33:48;;;;;;;16.42;2.38;;;;;;;5.28;64.38;99450.88;4991217;28;20064;-65
2023/12/11 02:36:13;;;;;;;18.60;2.65;;;;;;;4.99;65.04;99445.97;5007147;28;20550;-67
2023/12/11 02:38:39;;;;;;;25.45;3.60;;;;;;;5.44;64.07;99439.81;5009798;28;20064;-67
2023/12/11 02:41:04;;;;;;;34.72;4.00;;;;;;;5.32;64.06;99439.47;5004232;28;20071;-67
2023/12/11 02:43:30;;;;;;;24.98;3.75;;;;;;;5.20;63.85;99444.25;5006965;28;20602;-68
2023/12/11 02:45:55;;;;;;;19.05;3.25;;;;;;;5.37;63.38;99432.34;5005970;28;20129;-69
2023/12/11 02:48:21;;;;;;;24.15;3.15;;;;;;;5.20;63.73;99433.91;5006868;28;20047;-69
2023/12/11 02:50:46;;;;;;;25.88;2.97;;;;;;;4.98;64.30;99430.50;5004230;28;20053;-69
2023/12/11 02:53:12;;;;;;;30.30;2.78;;;;;;;4.71;65.30;99424.63;5005134;28;20064;-69
2023/12/11 02:55:37;;;;;;;32.83;2.90;;;;;;;4.92;64.64;99421.25;5008911;28;20061;-68
2023/12/11 02:58:03;;;;;;;13.15;2.47;;;;;;;4.96;64.44;99424.53;5003645;28;20045;-69
2023/12/11 03:00:30;;;;;;;26.08;2.75;;;;;;;4.77;64.66;99425.22;5008491;28;20492;-69
2023/12/11 03:02:56;;;;;;;16.73;1.75;;;;;;;4.83;64.71;99424.13;5002110;28;20100;-69
2023/12/11 03:05:22;;;;;;;21.13;2.90;;;;;;;5.28;63.26;99422.38;5007341;28;20173;-69
2023/12/11 03:07:48;;;;;;;22.13;3.08;;;;;;;4.71;65.19;99425.47;5003106;28;20117;-69
2023/12/11 03:10:14;;;;;;;32.67;3.80;;;;;;;4.80;64.42;99425.09;5011236;28;20480;-69
2023/12/11 03:12:39;;;;;;;28.67;2.45;;;;;;;4.69;64.79;99422.09;5008642;28;20048;-71
2023/12/11 03:15:06;;;;;;;18.42;2.15;;;;;;;4.62;65.45;99416.31;5005992;28;22958;-69
2023/12/11 03:17:32;;;;;;;23.30;3.92;;;;;;;4.31;66.07;99419.22;5011547;28;20056;-67
2023/12/11 03:19:59;;;;;;;18.88;3.45;;;;;;;4.64;65.40;99414.50;5006466;28;20034;-67
2023/12/11 03:22:25;;;;;;;30.70;2.92;;;;;;;4.90;64.76;99414.41;5005529;28;20687;-65
2023/12/11 03:24:52;;;;;;;31.23;2.40;;;;;;;4.68;65.04;99414.41;5020414;28;20030;-68
2023/12/11 03:27:19;;;;;;;33.25;3.63;;;;;;;4.59;65.53;99410.41;5007811;28;20033;-69
2023/12/11 03:29:45;;;;;;;28.52;2.70;;;;;;;5.09;63.72;99407.59;5006824;28;20037;-66
2023/12/11 03:32:11;;;;;;;17.40;2.42;;;;;;;4.71;65.17;99411.69;5006716;28;20106;-65
2023/12/11 03:34:36;;;;;;;22.17;2.40;;;;;;;4.73;65.19;99408.13;5005554;28;20037;-70
2023/12/11 03:37:02;;;;;;;24.65;2.35;;;;;;;5.25;63.09;99411.22;5003912;28;20123;-68
2023/12/11 03:39:27;;;;;;;27.60;3.72;;;;;;;4.92;63.97;99418.66;5004593;28;20223;-67
2023/12/11 03:41:54;;;;;;;24.77;3.53;;;;;;;4.68;65.23;99420.41;5007347;28;20634;-65
2023/12/11 03:44:19;;;;;;;23.15;3.75;;;;;;;4.90;64.08;99411.81;5004651;28;20124;-64
2023/12/11 03:46:45;;;;;;;22.95;2.80;;;;;;;4.91;64.47;99408.34;5007381;28;20093;-66
2023/12/11 03:49:11;;;;;;;24.15;2.95;;;;;;;4.52;66.03;99419.28;5003286;28;20072;-72
2023/12/11 03:51:36;;;;;;;17.48;2.88;;;;;;;4.65;65.73;99410.16;5009259;28;20029;-71
2023/12/11 03:54:02;;;;;;;29.27;3.28;;;;;;;5.06;64.24;99410.31;4994393;28;20111;-68
2023/12/11 03:56:27;;;;;;;27.40;3.75;;;;;;;4.82;65.41;99404.34;5005024;28;20037;-68
2023/12/11 03:58:53;;;;;;;22.20;3.83;;;;;;;5.06;64.15;99402.56;5003637;28;20053;-71
2023/12/11 04:01:18;;;;;;;18.77;2.45;;;;;;;5.00;64.77;99400.19;5002647;28;20064;-68
2023/12/11 04:03:44;;;;;;;20.00;2.25;;;;;;;5.13;63.98;99391.03;5009049;28;20114;-64
2023/12/11 04:06:09;;;;;;;24.25;2.15;;;;;;;4.98;64.37;99391.66;5002529;28;20366;-65
2023/12/11 04:08:40;;;;;;;21.00;2.63;;;;;;;5.30;63.21;99384.28;5007213;28;21375;-66
2023/12/11 04:11:05;;;;;;;16.73;2.50;;;;;;;5.41;63.27;99395.91;5006251;28;20061;-65
2023/12/11 04:13:31;;;;;;;22.42;3.05;;;;;;;5.48;62.91;99390.44;5003571;28;20764;-65
2023/12/11 04:15:56;;;;;;;19.35;2.55;;;;;;;5.56;62.61;99384.03;5004819;28;20037;-65
2023/12/11 04:18:22;;;;;;;13.50;2.00;;;;;;;5.54;62.46;99383.25;5002365;28;20075;-66
2023/12/11 04:20:47;;;;;;;19.98;2.78;;;;;;;5.56;62.41;99386.63;5010293;28;20575;-68
2023/12/11 04:23:13;;;;;;;14.77;2.22;;;;;;;5.61;62.08;99381.25;4996052;28;20759;-65
2023/12/11 04:25:38;;;;;;;13.23;1.83;;;;;;;5.57;62.14;99370.19;5005223;28;20030;-68
2023/12/11 04:28:04;;;;;;;9.00;2.05;;;;;;;5.56;62.31;99373.66;5002862;28;20356;-66
2023/12/11 04:30:29;;;;;;;19.90;2.63;;;;;;;5.59;62.08;99372.69;5007883;28;20041;-66
2023/12/11 04:32:55;;;;;;;16.60;2.13;;;;;;;5.64;62.28;99387.16;5003885;28;20038;-65
2023/12/11 04:35:20;;;;;;;12.98;1.40;;;;;;;5.67;62.31;99384.41;5006049;28;20116;-66
2023/12/11 04:37:46;;;;;;;9.25;1.50;;;;;;;5.46;62.60;99388.78;5007197;28;20038;-65
2023/12/11 04:40:11;;;;;;;26.38;3.13;;;;;;;5.41;62.80;99375.19;5008529;28;20042;-65
2023/12/11 04:42:37;;;;;;;17.67;1.90;;;;;;;5.25;63.72;99369.78;5010099;28;20033;-68
2023/12/11 04:45:02;;;;;;;14.43;2.00;;;;;;;5.45;63.10;99358.56;5008257;28;20067;-66
2023/12/11 04:47:28;;;;;;;22.70;1.90;;;;;;;5.41;63.09;99353.59;5009434;28;20041;-66
2023/12/11 04:49:53;;;;;;;12.98;2.25;;;;;;;5.58;62.92;99342.50;5008529;28;20026;-65
2023/12/11 04:52:19;;;;;;;8.18;1.77;;;;;;;5.56;63.04;99339.13;5009206;28;20504;-66
2023/12/11 04:54:44;;;;;;;18.50;3.33;;;;;;;5.63;62.82;99349.16;5009533;28;20072;-73
2023/12/11 04:57:10;;;;;;;15.18;1.95;;;;;;;5.67;62.51;99340.34;5007630;28;21936;-72
2023/12/11 04:59:35;;;;;;;12.75;1.77;;;;;;;5.68;62.67;99341.19;5009329;28;20107;-73
2023/12/11 05:02:00;;;;;;;16.70;1.60;;;;;;;5.64;62.35;99337.06;5008033;28;20041;-68
2023/12/11 05:04:26;;;;;;;16.48;2.33;;;;;;;5.66;62.12;99333.50;5008902;28;20061;-70
2023/12/11 05:06:51;;;;;;;17.55;3.40;;;;;;;5.62;62.93;99347.50;5008913;28;20017;-70
2023/12/11 05:09:17;;;;;;;21.27;1.83;;;;;;;5.55;63.08;99350.44;5008703;28;20107;-73
2023/12/11 05:11:42;;;;;;;21.13;2.33;;;;;;;5.66;63.09;99343.88;5009496;28;20053;-74
2023/12/11 05:14:08;;;;;;;11.93;2.17;;;;;;;5.66;62.79;99328.31;5006329;28;20049;-71
2023/12/11 05:16:33;;;;;;;20.63;3.35;;;;;;;5.66;63.28;99328.31;5005658;28;20021;-71
2023/12/11 05:18:58;;;;;;;35.08;4.95;;;;;;;5.30;64.60;99325.56;5005391;28;20659;-70
2023/12/11 05:21:24;;;;;;;22.13;3.20;;;;;;;5.37;64.55;99324.41;5010424;28;20538;-69
2023/12/11 05:23:51;;;;;;;28.50;3.45;;;;;;;5.09;65.52;99322.13;5010233;28;20045;-68
2023/12/11 05:26:20;;;;;;;24.33;2.75;;;;;;;5.08;66.19;99323.06;5009093;28;20033;-68
2023/12/11 05:28:47;;;;;;;21.00;5.28;;;;;;;5.45;65.10;99319.72;5008510;28;20045;-70
2023/12/11 05:31:13;;;;;;;24.70;3.97;;;;;;;5.35;65.17;99315.00;5008779;28;20610;-70
2023/12/11 05:33:39;;;;;;;22.38;2.90;;;;;;;5.45;65.00;99329.22;5008246;28;20068;-70
2023/12/11 05:36:05;;;;;;;32.67;5.97;;;;;;;5.46;65.05;99321.41;5007562;28;20480;-70
2023/12/11 05:38:30;;;;;;;21.77;3.63;;;;;;;5.60;64.52;99320.78;5007915;28;20049;-69
2023/12/11 05:40:55;;;;;;;15.55;2.92;;;;;;;5.66;64.39;99310.16;5008820;28;20033;-69
2023/12/11 05:43:21;;;;;;;27.92;3.65;;;;;;;5.67;63.85;99313.59;5009729;28;20136;-69
2023/12/11 05:45:46;;;;;;;37.50;3.42;;;;;;;5.23;65.68;99306.88;5009020;28;20400;-69
2023/12/11 05:48:12;;;;;;;29.75;4.50;;;;;;;5.48;65.18;99308.41;5006769;28;20543;-64
2023/12/11 05:50:37;;;;;;;21.60;2.95;;;;;;;5.25;65.32;99305.03;5009411;28;20037;-67
2023/12/11 05:53:03;;;;;;;31.83;3.45;;;;;;;4.89;67.21;99304.00;5005882;28;20045;-65
2023/12/11 05:55:28;;;;;;;29.00;4.95;;;;;;;4.86;66.97;99309.28;5007763;28;20033;-65
2023/12/11 05:57:54;;;;;;;30.20;3.63;;;;;;;5.19;66.34;99300.13;5010344;28;20045;-66
2023/12/11 06:00:20;;;;;;;32.13;3.60;;;;;;;5.09;66.98;99306.59;5007237;28;20040;-66
2023/12/11 06:02:45;;;;;;;26.25;5.05;;;;;;;4.86;67.16;99309.28;5009149;28;20038;-66
2023/12/11 06:05:11;;;;;;;28.02;3.78;;;;;;;5.32;65.45;99302.16;5006927;28;20071;-64
2023/12/11 06:07:36;;;;;;;32.05;4.70;;;;;;;5.01;66.62;99298.28;5006393;28;20039;-66
2023/12/11 06:10:03;;;;;;;25.95;4.13;;;;;;;5.01;67.10;99295.69;5004077;28;20033;-66
2023/12/11 06:12:28;;;;;;;22.83;2.80;;;;;;;5.48;65.62;99299.75;5007756;28;20082;-64
2023/12/11 06:14:54;;;;;;;28.13;4.07;;;;;;;5.18;65.58;99292.41;5010774;28;20519;-65
2023/12/11 06:17:21;;;;;;;29.00;4.05;;;;;;;5.07;66.44;99298.03;5004079;28;20046;-65
2023/12/11 06:19:46;;;;;;;19.27;3.25;;;;;;;5.56;65.04;99293.31;5015512;28;20041;-65
2023/12/11 06:22:12;;;;;;;28.63;4.70;;;;;;;5.06;65.95;99291.19;5004636;28;20042;-66
2023/12/11 06:24:39;;;;;;;30.20;3.83;;;;;;;5.46;65.37;99289.47;5007475;28;20078;-65
2023/12/11 06:27:04;;;;;;;27.20;4.68;;;;;;;5.40;65.57;99294.91;5002145;28;20106;-66
2023/12/11 06:29:30;;;;;;;25.83;3.72;;;;;;;5.13;65.99;99290.03;5008852;28;20053;-65
2023/12/11 06:31:55;;;;;;;30.88;4.50;;;;;;;5.28;65.63;99296.31;5010788;28;20480;-66
2023/12/11 06:34:21;;;;;;;28.88;3.88;;;;;;;5.32;65.96;99297.81;5004805;28;20188;-64
2023/12/11 06:36:46;;;;;;;27.73;3.53;;;;;;;5.42;65.80;99282.75;5008497;28;20033;-66
2023/12/11 06:39:12;;;;;;;28.23;3.53;;;;;;;5.52;65.16;99289.19;5003877;28;20037;-65
2023/12/11 06:41:37;;;;;;;32.63;4.40;;;;;;;5.64;64.73;99293.00;5008500;28;20037;-64
2023/12/11 06:44:03;;;;;;;34.33;3.42;;;;;;;5.42;65.53;99287.94;5005341;28;20224;-66
2023/12/11 06:46:29;;;;;;;26.05;3.50;;;;;;;5.17;66.61;99280.38;4992009;28;20191;-64
2023/12/11 06:48:56;;;;;;;20.30;4.22;;;;;;;5.50;65.73;99293.59;5004846;28;20045;-67
2023/12/11 06:51:23;;;;;;;28.00;3.75;;;;;;;5.37;66.04;99289.84;5006206;28;20037;-65
2023/12/11 06:53:49;;;;;;;17.70;3.42;;;;;;;5.29;66.32;99292.78;5007346;28;20037;-71
2023/12/11 06:56:18;;;;;;;31.75;3.58;;;;;;;5.50;64.87;99290.16;5004326;28;20565;-71
2023/12/11 06:58:45;;;;;;;25.92;3.55;;;;;;;5.37;66.01;99297.63;5008485;28;20107;-71
2023/12/11 07:01:10;;;;;;;28.55;3.90;;;;;;;5.27;65.91;99296.34;5004853;28;20025;-71
2023/12/11 07:03:36;;;;;;;19.40;3.53;;;;;;;5.29;66.07;99297.13;5006836;28;20037;-66
2023/12/11 07:06:02;;;;;;;31.92;3.40;;;;;;;5.73;64.53;99291.75;5005768;28;20033;-65
2023/12/11 07:08:27;;;;;;;23.02;3.75;;;;;;;5.48;65.33;99294.56;5023581;28;20163;-66
2023/12/11 07:10:53;;;;;;;19.98;3.40;;;;;;;5.29;65.72;99297.13;4989176;28;21900;-65
2023/12/11 07:13:18;;;;;;;29.45;4.20;;;;;;;5.67;64.96;99295.44;5005254;28;20042;-66
2023/12/11 07:15:44;;;;;;;34.28;4.97;;;;;;;5.24;66.58;99298.16;5006251;28;20029;-66
2023/12/11 07:18:13;;;;;;;24.75;3.30;;;;;;;5.32;66.37;99291.81;4986150;28;20051;-66
2023/12/11 07:20:41;;;;;;;30.30;3.83;;;;;;;4.87;67.56;99291.06;5007886;28;20061;-66
2023/12/11 07:23:07;;;;;;;22.95;3.33;;;;;;;4.96;67.15;99295.91;5003603;28;20637;-65
2023/12/11 07:25:33;;;;;;;29.02;5.00;;;;;;;5.32;65.98;99294.41;5006762;28;20192;-66
2023/12/11 07:27:59;;;;;;;31.30;3.95;;;;;;;5.20;66.33;99301.78;5006399;28;20057;-65
2023/12/11 07:30:26;;;;;;;25.92;3.00;;;;;;;5.06;66.71;99291.19;5006605;28;20043;-66
2023/12/11 07:32:51;;;;;;;27.95;3.58;;;;;;;5.18;66.05;99298.44;5006280;28;20124;-66
2023/12/11 07:35:17;;;;;;;15.57;1.83;;;;;;;5.42;65.50;99303.47;5004828;28;20108;-65
2023/12/11 07:37:42;;;;;;;23.40;3.88;;;;;;;5.44;65.38;99301.66;5004971;28;20841;-66
2023/12/11 07:40:09;;;;;;;18.40;2.92;;;;;;;5.23;66.06;99299.09;5005708;28;20112;-65
2023/12/11 07:42:35;;;;;;;23.65;4.20;;;;;;;5.47;65.50;99301.50;5006765;28;20053;-66
2023/12/11 07:45:04;;;;;;;19.85;3.33;;;;;;;5.48;65.26;99295.44;5008442;28;20029;-66
2023/12/11 07:47:32;;;;;;;27.27;4.00;;;;;;;5.19;66.35;99302.72;5007583;28;20065;-66
2023/12/11 07:49:58;;;;;;;27.70;4.35;;;;;;;4.84;67.75;99306.75;5005711;28;20041;-66
2023/12/11 07:52:24;;;;;;;20.33;3.83;;;;;;;5.45;65.48;99303.31;4985639;28;20037;-67
2023/12/11 07:54:50;;;;;;;20.77;2.22;;;;;;;5.32;65.82;99297.81;5004367;28;20077;-67
2023/12/11 07:57:15;;;;;;;25.52;2.47;;;;;;;5.32;66.24;99297.00;5005534;28;20099;-66
2023/12/11 07:59:40;;;;;;;21.27;2.45;;;;;;;5.25;66.19;99288.66;5005498;28;20531;-68
2023/12/11 08:02:07;;;;;;;13.77;2.17;;;;;;;4.81;67.90;99299.09;5005699;28;20086;-66
2023/12/11 08:04:32;;;;;;;25.10;3.38;;;;;;;5.06;66.68;99298.97;5006782;28;20097;-66
2023/12/11 08:06:58;;;;;;;27.15;3.25;;;;;;;5.37;65.98;99300.22;5005923;28;20041;-65
2023/12/11 08:09:23;;;;;;;21.98;2.28;;;;;;;5.34;65.65;99297.78;5005353;28;20114;-64
2023/12/11 08:11:49;;;;;;;26.08;3.10;;;;;;;5.47;65.85;99301.50;5002936;28;20151;-64
2023/12/11 08:14:16;;;;;;;27.38;3.13;;;;;;;5.53;65.20;99303.84;5006580;28;20125;-65
2023/12/11 08:16:41;;;;;;;19.33;2.65;;;;;;;5.60;64.69;99305.25;5007945;28;20033;-66
2023/12/11 08:19:07;;;;;;;28.38;5.53;;;;;;;5.82;63.92;99304.28;5008019;28;20056;-68
2023/12/11 08:21:33;;;;;;;27.45;3.65;;;;;;;5.44;64.71;99307.69;5012297;28;20045;-67
2023/12/11 08:23:58;;;;;;;21.27;2.50;;;;;;;5.39;65.82;99309.63;5024091;28;20124;-66
2023/12/11 08:26:24;;;;;;;31.73;4.43;;;;;;;5.64;64.91;99309.38;5009384;28;20037;-65
2023/12/11 08:28:50;;;;;;;22.20;2.65;;;;;;;5.48;65.67;99300.63;4990531;28;20047;-66
2023/12/11 08:31:16;;;;;;;21.35;2.90;;;;;;;5.42;65.62;99298.28;5009979;28;20254;-65
2023/12/11 08:33:42;;;;;;;25.83;2.60;;;;;;;5.44;65.84;99302.50;5010287;28;20553;-64
2023/12/11 08:36:08;;;;;;;28.75;4.03;;;;;;;5.65;65.03;99305.88;5013573;28;20037;-65
2023/12/11 08:38:34;;;;;;;29.38;2.92;;;;;;;5.72;64.99;99306.44;5025254;28;20098;-67
2023/12/11 08:41:00;;;;;;;23.45;2.67;;;;;;;5.33;65.49;99306.47;4998721;28;20021;-66
2023/12/11 08:43:26;;;;;;;35.15;3.42;;;;;;;5.75;64.47;99306.31;4990248;28;20470;-67
2023/12/11 08:45:52;;;;;;;21.15;2.15;;;;;;;5.71;64.64;99298.75;5010081;28;20111;-67
2023/12/11 08:48:17;;;;;;;27.35;2.90;;;;;;;5.17;65.51;99303.69;4994387;28;20131;-67
2023/12/11 08:50:43;;;;;;;34.25;3.83;;;;;;;5.62;64.45;99300.84;5010319;28;20120;-66
2023/12/11 08:53:09;;;;;;;14.20;1.80;;;;;;;5.93;64.24;99302.06;4989459;28;20042;-67
2023/12/11 08:55:35;;;;;;;18.50;2.60;;;;;;;5.99;63.58;99306.94;5011074;28;20033;-66
2023/12/11 08:58:00;;;;;;;18.48;2.55;;;;;;;5.91;63.53;99303.88;5008455;28;20037;-67
2023/12/11 09:00:28;;;;;;;23.42;2.47;;;;;;;5.39;64.97;99306.19;5005621;28;20037;-67
2023/12/11 09:02:54;;;;;;;22.67;2.03;;;;;;;5.57;64.67;99305.41;5007757;28;20045;-65
2023/12/11 09:05:20;;;;;;;15.30;1.38;;;;;;;5.92;63.80;99317.66;5012055;28;20120;-66
2023/12/11 09:07:45;;;;;;;16.10;2.42;;;;;;;5.67;64.19;99314.44;5008027;28;20496;-65
2023/12/11 09:10:11;;;;;;;18.50;2.15;;;;;;;5.98;63.33;99318.22;5005897;28;20104;-67
2023/12/11 09:12:37;;;;;;;11.07;1.92;;;;;;;5.72;63.88;99321.16;5011579;28;20112;-67
2023/12/11 09:15:04;;;;;;;16.38;1.00;;;;;;;5.51;64.77;99333.31;5009028;28;20045;-67
2023/12/11 09:17:30;;;;;;;17.35;1.75;;;;;;;5.16;66.14;99323.53;5006501;28;20381;-65
2023/12/11 09:19:55;;;;;;;21.00;2.00;;;;;;;5.74;64.21;99334.91;5011396;28;20048;-67
2023/12/11 09:22:21;;;;;;;16.17;1.98;;;;;;;5.51;64.80;99339.34;5006202;28;20033;-65
2023/12/11 09:24:46;;;;;;;13.88;2.30;;;;;;;5.63;64.26;99338.78;5011294;28;20037;-67
2023/12/11 09:27:12;;;;;;;11.15;2.85;;;;;;;6.00;63.20;99337.16;5006221;28;20039;-66
2023/12/11 09:29:37;;;;;;;18.38;2.45;;;;;;;5.93;63.29;99340.94;5006245;28;20408;-67
2023/12/11 09:32:03;;;;;;;13.52;2.42;;;;;;;5.90;63.28;99348.84;5004243;28;20049;-68
2023/12/11 09:34:28;;;;;;;17.50;4.18;;;;;;;5.92;63.76;99352.22;4997587;28;21338;-67
2023/12/11 09:36:54;;;;;;;8.82;1.88;;;;;;;6.15;63.00;99350.31;5000392;28;20069;-65
2023/12/11 09:39:20;;;;;;;21.85;1.83;;;;;;;5.99;63.37;99351.03;5001529;28;20172;-65
2023/12/11 09:41:46;;;;;;;15.35;1.55;;;;;;;6.01;62.97;99354.41;5009571;28;20207;-67
2023/12/11 09:44:12;;;;;;;7.35;1.45;;;;;;;6.14;63.12;99353.84;5004468;28;20142;-68
2023/12/11 09:46:43;;;;;;;7.82;1.55;;;;;;;6.20;63.06;99358.75;5005828;28;20080;-67
2023/12/11 09:49:10;;;;;;;13.93;2.37;;;;;;;6.16;63.30;99352.88;5003741;28;20824;-67
2023/12/11 09:51:36;;;;;;;12.48;1.20;;;;;;;6.38;62.57;99357.94;5007549;28;20276;-67
2023/12/11 09:54:03;;;;;;;11.70;1.10;;;;;;;6.20;62.82;99353.56;5004949;28;20045;-68
2023/12/11 09:56:31;;;;;;;7.72;1.90;;;;;;;6.20;63.61;99362.19;5002115;28;20057;-67
2023/12/11 09:58:57;;;;;;;7.90;1.20;;;;;;;6.37;62.82;99361.44;5003756;28;20038;-68
2023/12/11 10:01:23;;;;;;;9.80;1.40;;;;;;;6.35;62.90;99358.09;4999686;28;20047;-67
2023/12/11 10:03:49;;;;;;;13.07;1.50;;;;;;;6.32;62.60;99368.59;5003742;28;20041;-67
2023/12/11 10:06:14;;;;;;;5.90;1.48;;;;;;;6.01;63.93;99371.72;4997244;28;20095;-67
2023/12/11 10:08:44;;;;;;;8.90;1.05;;;;;;;5.75;64.21;99372.88;5002412;28;20050;-68
2023/12/11 10:11:11;;;;;;;5.60;1.25;;;;;;;6.16;63.29;99373.63;5002975;28;20045;-67
2023/12/11 10:13:38;;;;;;;11.98;1.48;;;;;;;6.02;64.07;99371.66;4990838;28;20100;-67
2023/12/11 10:16:05;;;;;;;8.20;1.02;;;;;;;6.36;63.20;99377.94;4982769;28;20037;-67
2023/12/11 10:18:31;;;;;;;13.15;2.08;;;;;;;6.26;62.92;99380.09;4998230;28;20267;-66
2023/12/11 10:20:58;;;;;;;15.48;1.73;;;;;;;6.31;63.21;99372.13;5003224;28;20064;-67
2023/12/11 10:23:23;;;;;;;10.85;1.67;;;;;;;6.31;63.41;99382.50;4998450;28;20049;-66
2023/12/11 10:25:53;;;;;;;7.18;1.35;;;;;;;6.38;62.96;99383.88;5004900;28;20087;-67
2023/12/11 10:28:20;;;;;;;13.52;1.52;;;;;;;6.41;62.98;99386.34;4996244;28;20451;-66
2023/12/11 10:30:52;;;;;;;6.25;1.10;;;;;;;6.48;62.52;99386.88;5005830;28;20026;-66
2023/12/11 10:33:18;;;;;;;5.55;1.88;;;;;;;6.38;62.81;99394.28;4996500;28;20676;-67
2023/12/11 10:35:45;;;;;;;12.55;1.05;;;;;;;6.04;64.03;99395.78;5004490;28;20037;-66
2023/12/11 10:38:19;;;;;;;12.45;1.50;;;;;;;6.13;63.41;99393.66;4998927;28;20052;-65
2023/12/11 10:40:45;;;;;;;8.75;2.58;;;;;;;6.09;63.53;99396.41;5005847;28;20033;-66
2023/12/11 10:43:10;;;;;;;6.32;1.42;;;;;;;6.26;63.10;99405.16;5002248;28;21042;-66
2023/12/11 10:45:36;;;;;;;10.50;1.52;;;;;;;5.80;64.89;99402.88;5000655;28;21627;-65
2023/12/11 10:48:03;;;;;;;5.22;0.80;;;;;;;6.10;64.22;99405.00;5002390;28;20053;-66
2023/12/11 10:50:30;;;;;;;12.25;1.77;;;;;;;6.15;63.75;99410.00;5000638;28;20400;-66
2023/12/11 10:52:59;;;;;;;8.07;1.88;;;;;;;6.36;63.26;99410.81;4995054;28;20417;-66
2023/12/11 10:55:25;;;;;;;8.07;1.13;;;;;;;6.09;64.32;99419.75;4999862;28;20029;-65
2023/12/11 10:57:51;;;;;;;8.73;1.33;;;;;;;6.21;63.72;99425.28;5005008;28;20033;-66
2023/12/11 11:00:17;;;;;;;6.03;1.35;;;;;;;6.23;63.58;99415.69;5000356;28;20029;-66
2023/12/11 11:02:44;;;;;;;15.98;1.67;;;;;;;6.21;63.87;99425.28;5006558;28;20957;-66
2023/12/11 11:05:12;;;;;;;5.60;1.85;;;;;;;6.28;63.61;99426.72;4999730;28;20120;-66
2023/12/11 11:07:49;;;;;;;9.68;1.13;;;;;;;6.06;64.71;99432.88;4990028;28;20556;-66
2023/12/11 11:10:25;;;;;;;9.02;0.82;;;;;;;5.96;64.96;99434.16;5003113;28;20041;-66
2023/12/11 11:13:00;;;;;;;5.25;0.65;;;;;;;6.18;64.06;99443.59;4993554;28;20496;-65
2023/12/11 11:15:27;;;;;;;5.20;0.98;;;;;;;6.19;64.41;99435.72;4981740;28;20033;-66
2023/12/11 11:18:00;;;;;;;5.30;1.15;;;;;;;6.00;64.68;99446.09;5001808;28;20053;-68
2023/12/11 11:20:32;;;;;;;8.00;0.77;;;;;;;5.95;64.96;99445.47;4999191;28;20029;-66
2023/12/11 11:23:13;;;;;;;4.97;0.93;;;;;;;6.15;64.09;99459.28;5003853;28;20128;-66
2023/12/11 11:25:39;;;;;;;6.07;0.63;;;;;;;6.34;63.60;99460.19;4997858;28;20213;-66
2023/12/11 11:28:04;;;;;;;7.82;1.00;;;;;;;5.77;64.97;99460.06;4998841;28;20100;-65